createdAt,value
2023-04-19T00:00:54.660Z,91.05
2023-04-19T00:06:00.726Z,91.76
2023-04-19T00:11:02.454Z,92.22
2023-04-19T00:16:04.363Z,91.66
2023-04-19T00:21:06.428Z,92.08
2023-04-19T00:26:08.078Z,92.74
2023-04-19T00:31:09.645Z,93.27
2023-04-19T00:36:12.480Z,93.07
2023-04-19T00:41:14.066Z,93.76
2023-04-19T00:46:16.039Z,93.02
2023-04-19T00:51:17.988Z,93.99
2023-04-19T00:56:22.210Z,92.54
2023-04-19T01:01:23.780Z,91.40
2023-04-19T01:06:28.182Z,91.38
2023-04-19T01:11:29.862Z,91.74
2023-04-19T01:16:33.365Z,91.58
2023-04-19T01:21:39.323Z,91.69
2023-04-19T01:26:40.877Z,92.37
2023-04-19T01:31:43.398Z,92.60
2023-04-19T01:36:45.001Z,94.30
2023-04-19T01:41:47.293Z,94.63
2023-04-19T01:46:48.950Z,94.84
2023-04-19T01:51:50.697Z,95.59
2023-04-19T01:56:52.322Z,95.64
2023-04-19T02:01:54.582Z,95.98
2023-04-19T02:06:56.182Z,95.46
2023-04-19T02:11:57.886Z,95.24
2023-04-19T02:17:01.666Z,95.14
2023-04-19T02:22:03.235Z,96.16
2023-04-19T02:27:04.788Z,96.33
2023-04-19T02:32:07.813Z,95.63
2023-04-19T02:37:09.445Z,95.91
2023-04-19T02:42:11.108Z,96.12
2023-04-19T02:47:12.633Z,96.47
2023-04-19T02:52:14.463Z,96.43
2023-04-19T02:57:16.589Z,97.01
2023-04-19T03:02:18.973Z,96.84
2023-04-19T03:07:21.121Z,97.01
2023-04-19T03:12:22.765Z,97.01
2023-04-19T03:17:24.532Z,96.59
2023-04-19T03:22:27.428Z,97.80
2023-04-19T03:27:29.098Z,97.38
2023-04-19T03:32:35.354Z,98.17
2023-04-19T03:37:37.966Z,98.42
2023-04-19T03:42:39.943Z,98.59
2023-04-19T03:47:46.740Z,97.25
2023-04-19T03:52:48.409Z,96.22
2023-04-19T03:57:50.314Z,97.77
2023-04-19T04:02:58.968Z,99.10
2023-04-19T04:08:01.082Z,97.54
2023-04-19T04:13:02.834Z,97.90
2023-04-19T04:18:28.589Z,97.06
2023-04-19T04:23:30.762Z,97.01
2023-04-19T04:28:33.672Z,96.63
2023-04-19T04:33:36.029Z,96.86
2023-04-19T04:38:39.281Z,96.50
2023-04-19T04:43:41.439Z,97.52
2023-04-19T04:48:43.979Z,98.38
2023-04-19T04:53:46.009Z,99.21
2023-04-19T04:58:47.913Z,98.88
2023-04-19T05:03:57.347Z,99.15
2023-04-19T05:08:59.278Z,98.48
2023-04-19T05:14:07.247Z,98.13
2023-04-19T05:19:09.554Z,96.18
2023-04-19T05:24:17.471Z,95.99
2023-04-19T05:29:19.347Z,95.97
2023-04-19T05:34:25.076Z,94.82
2023-04-19T05:39:29.230Z,95.38
2023-04-19T05:44:33.034Z,95.75
2023-04-19T05:49:34.828Z,93.90
2023-04-19T05:54:52.032Z,93.08
2023-04-19T05:59:53.995Z,94.27
2023-04-19T06:05:02.502Z,94.82
2023-04-19T06:10:07.885Z,94.73
2023-04-19T06:15:09.880Z,94.06
2023-04-19T06:20:12.304Z,92.59
2023-04-19T06:25:13.879Z,90.25
2023-04-19T06:30:15.520Z,90.82
2023-04-19T06:35:17.392Z,90.73
2023-04-19T06:40:19.149Z,90.43
2023-04-19T06:45:20.700Z,89.54
2023-04-19T06:50:22.777Z,87.64
2023-04-19T06:55:24.437Z,88.31
2023-04-19T07:00:26.403Z,89.05
2023-04-19T07:05:28.994Z,88.28
2023-04-19T07:10:30.607Z,85.94
2023-04-19T07:15:32.421Z,84.94
2023-04-19T07:20:34.289Z,82.75
2023-04-19T07:25:35.877Z,82.87
2023-04-19T07:30:37.560Z,85.28
2023-04-19T07:35:40.173Z,85.23
2023-04-19T07:40:41.728Z,86.08
2023-04-19T07:45:43.354Z,84.34
2023-04-19T07:50:44.952Z,82.08
2023-04-19T07:55:46.495Z,81.61
2023-04-19T08:00:48.096Z,78.34
2023-04-19T08:05:49.864Z,77.46
2023-04-19T08:10:54.716Z,75.87
2023-04-19T08:21:01.437Z,75.66
2023-04-19T08:26:03.542Z,70.79
2023-04-19T08:31:08.575Z,72.75
2023-04-19T08:36:10.442Z,72.60
2023-04-19T08:41:13.692Z,72.82
2023-04-19T08:46:15.377Z,72.31
2023-04-19T08:51:19.014Z,71.39
2023-04-19T08:56:34.532Z,69.79
2023-04-19T09:01:37.245Z,72.11
2023-04-19T09:06:40.026Z,70.42
2023-04-19T09:11:42.128Z,68.38
2023-04-19T09:16:44.739Z,68.56
2023-04-19T09:21:51.921Z,69.60
2023-04-19T09:26:57.928Z,69.93
2023-04-19T09:31:59.955Z,69.35
2023-04-19T09:37:22.795Z,67.58
2023-04-19T09:48:07.470Z,69.85
2023-04-19T09:53:10.878Z,69.08
2023-04-19T09:58:12.517Z,69.16
2023-04-19T10:03:18.378Z,69.56
2023-04-19T10:08:20.009Z,69.82
2023-04-19T10:13:26.712Z,68.60
2023-04-19T10:18:29.633Z,66.88
2023-04-19T10:23:37.475Z,68.03
2023-04-19T10:28:39.161Z,63.82
2023-04-19T10:33:41.419Z,63.96
2023-04-19T10:38:48.378Z,62.72
2023-04-19T10:43:56.135Z,63.57
2023-04-19T10:48:59.761Z,64.09
2023-04-19T10:54:03.480Z,64.98
2023-04-19T10:59:08.139Z,65.82
2023-04-19T11:04:15.694Z,64.60
2023-04-19T11:09:24.540Z,65.35
2023-04-19T11:14:27.235Z,66.58
2023-04-19T11:19:28.926Z,66.00
2023-04-19T11:24:30.543Z,67.92
2023-04-19T11:29:32.145Z,67.96
2023-04-19T11:34:39.042Z,68.00
2023-04-19T11:39:49.098Z,67.44
2023-04-19T11:44:52.096Z,68.69
2023-04-19T11:49:56.240Z,68.63
2023-04-19T11:55:18.243Z,69.70
2023-04-19T12:00:28.492Z,69.98
2023-04-19T12:05:30.577Z,70.83
2023-04-19T12:10:32.820Z,71.58
2023-04-19T12:15:44.967Z,72.53
2023-04-19T12:20:50.921Z,73.86
2023-04-19T12:25:52.596Z,75.05
2023-04-19T12:30:54.177Z,76.91
2023-04-19T12:35:55.733Z,80.84
2023-04-19T12:40:57.319Z,83.78
2023-04-19T12:45:59.553Z,88.47
2023-04-19T12:51:01.195Z,92.97
2023-04-19T12:56:02.822Z,95.22
2023-04-19T13:01:05.001Z,95.79
2023-04-19T13:06:07.241Z,98.74
2023-04-19T13:11:08.789Z,98.37
2023-04-19T13:16:11.079Z,100.00
2023-04-19T13:21:13.199Z,100.00
2023-04-19T13:26:15.815Z,100.00
2023-04-19T13:31:17.430Z,100.00
2023-04-19T13:36:19.236Z,100.00
2023-04-19T13:41:21.342Z,100.00
2023-04-19T13:46:23.214Z,100.00
2023-04-19T13:51:24.965Z,100.00
2023-04-19T13:56:26.785Z,100.00
2023-04-19T14:01:28.485Z,100.00
2023-04-19T14:06:30.093Z,100.00
2023-04-19T14:11:31.650Z,100.00
2023-04-19T14:16:33.066Z,100.00
2023-04-19T14:21:38.577Z,100.00
2023-04-19T14:26:40.160Z,100.00
2023-04-19T14:31:41.686Z,100.00
2023-04-19T14:36:43.220Z,100.00
2023-04-19T14:41:47.106Z,97.98
2023-04-19T14:46:48.612Z,96.96
2023-04-19T14:51:52.018Z,96.05
2023-04-19T14:56:53.772Z,94.10
2023-04-19T15:01:55.376Z,93.98
2023-04-19T15:06:56.906Z,92.87
2023-04-19T15:11:58.426Z,91.92
2023-04-19T15:17:00.035Z,92.36
2023-04-19T15:22:03.909Z,92.33
2023-04-19T15:27:05.575Z,90.99
2023-04-19T15:32:07.400Z,92.15
2023-04-19T15:37:11.357Z,89.81
2023-04-19T15:42:13.009Z,88.68
2023-04-19T15:47:14.621Z,86.80
2023-04-19T15:52:16.208Z,86.02
2023-04-19T15:57:18.250Z,84.31
2023-04-19T16:02:19.945Z,83.29
2023-04-19T16:07:21.761Z,82.80
2023-04-19T16:12:23.919Z,82.79
2023-04-19T16:17:25.515Z,83.34
2023-04-19T16:22:27.112Z,81.49
2023-04-19T16:27:28.669Z,83.78
2023-04-19T16:32:30.332Z,83.17
2023-04-19T16:37:32.791Z,75.20
2023-04-19T16:42:35.497Z,80.57
2023-04-19T16:47:37.090Z,85.65
2023-04-19T16:52:38.724Z,88.64
2023-04-19T16:57:40.387Z,88.11
2023-04-19T17:02:42.034Z,88.08
2023-04-19T17:07:43.709Z,85.32
2023-04-19T17:12:45.238Z,83.61
2023-04-19T17:17:46.853Z,81.06
2023-04-19T17:22:48.391Z,79.33
2023-04-19T17:27:50.820Z,76.03
2023-04-19T17:32:52.620Z,68.57
2023-04-19T17:37:54.265Z,65.88
2023-04-19T17:42:55.883Z,67.07
2023-04-19T17:47:57.446Z,69.95
2023-04-19T17:52:59.008Z,71.29
2023-04-19T17:58:00.750Z,72.77
2023-04-19T18:03:02.343Z,72.86
2023-04-19T18:08:04.481Z,74.41
2023-04-19T18:13:06.094Z,75.46
2023-04-19T18:18:07.757Z,76.99
2023-04-19T18:23:09.414Z,77.39
2023-04-19T18:28:10.945Z,78.75
2023-04-19T18:33:12.619Z,76.22
2023-04-19T18:38:14.247Z,70.43
2023-04-19T18:43:16.307Z,67.60
2023-04-19T18:48:17.856Z,62.52
2023-04-19T18:53:19.434Z,60.74
2023-04-19T18:58:21.022Z,59.25
2023-04-19T19:03:43.848Z,58.43
2023-04-19T19:08:45.281Z,58.18
2023-04-19T19:13:47.246Z,56.37
2023-04-19T19:18:48.816Z,56.74
2023-04-19T19:23:52.559Z,57.27
2023-04-19T19:28:54.324Z,57.96
2023-04-19T19:34:14.745Z,57.70
2023-04-19T19:39:17.813Z,58.57
2023-04-19T19:44:19.616Z,59.24
2023-04-19T19:49:21.865Z,60.35
2023-04-19T19:54:23.713Z,61.08
2023-04-19T19:59:30.125Z,60.72
2023-04-19T20:04:35.192Z,61.96
2023-04-19T20:09:37.059Z,61.66
2023-04-19T20:14:38.822Z,63.03
2023-04-19T20:19:42.474Z,62.71
2023-04-19T20:24:45.715Z,64.03
2023-04-19T20:29:47.313Z,64.92
2023-04-19T20:34:48.852Z,63.62
2023-04-19T20:39:50.485Z,64.63
2023-04-19T20:44:52.170Z,64.86
2023-04-19T20:49:53.710Z,65.92
2023-04-19T20:54:56.842Z,66.64
2023-04-19T20:59:58.886Z,66.66
2023-04-19T21:05:00.591Z,67.78
2023-04-19T21:10:02.174Z,67.61
2023-04-19T21:15:04.926Z,68.71
2023-04-19T21:20:12.263Z,69.80
2023-04-19T21:25:14.069Z,70.51
2023-04-19T21:30:16.644Z,71.08
2023-04-19T21:35:18.636Z,72.11
2023-04-19T21:40:20.238Z,73.25
2023-04-19T21:45:21.781Z,74.88
2023-04-19T21:50:23.344Z,75.83
2023-04-19T21:55:25.140Z,77.16
2023-04-19T22:00:26.678Z,77.89
2023-04-19T22:05:28.248Z,78.79
2023-04-19T22:10:30.081Z,77.83
2023-04-19T22:15:31.773Z,77.59
2023-04-19T22:20:33.811Z,78.49
2023-04-19T22:25:35.564Z,79.21
2023-04-19T22:30:37.116Z,79.43
2023-04-19T22:35:38.648Z,80.79
2023-04-19T22:40:40.365Z,80.92
2023-04-19T22:45:44.550Z,81.60
2023-04-19T22:50:46.902Z,82.47
2023-04-19T22:55:48.579Z,83.19
2023-04-19T23:00:50.226Z,83.17
2023-04-19T23:05:54.226Z,84.05
2023-04-19T23:10:55.929Z,84.14
2023-04-19T23:15:58.434Z,84.67
2023-04-19T23:21:00.019Z,85.61
2023-04-19T23:26:01.635Z,85.71
2023-04-19T23:31:03.281Z,86.90
2023-04-19T23:36:05.132Z,88.95
2023-04-19T23:41:09.374Z,89.78
2023-04-19T23:46:10.974Z,89.95
2023-04-19T23:51:12.822Z,90.39
2023-04-19T23:56:14.397Z,91.21
